Time;durP1;ratioP1;P1;durP2;ratioP2;P2;SDS_P1;SDS_P2;PMS_P1;PMS_P2;Temp;Humidity;BMP_temperature;BMP_pressure;BME280_temperature;BME280_humidity;BME280_pressure;Samples;Min_cycle;Max_cycle;Signal;HPM_P1;HPM_P2
2022/04/09 00:01:56;;;;;;;17.90;3.20;;;;;;;;;;4965178;28;20704;-63
2022/04/09 00:04:21;;;;;;;12.87;2.50;;;;;;;;;;4964558;28;20244;-63
2022/04/09 00:06:47;;;;;;;18.20;2.87;;;;;;;;;;4960411;28;20218;-63
2022/04/09 00:09:12;;;;;;;16.33;3.00;;;;;;;;;;4957221;28;20580;-63
2022/04/09 00:11:37;;;;;;;14.95;2.75;;;;;;;;;;4956732;28;20210;-63
2022/04/09 00:14:03;;;;;;;15.27;2.30;;;;;;;;;;4961744;28;20253;-63
2022/04/09 00:16:28;;;;;;;14.32;2.90;;;;;;;;;;4965507;28;20224;-63
2022/04/09 00:18:53;;;;;;;16.53;2.80;;;;;;;;;;4981628;28;20601;-63
2022/04/09 00:21:18;;;;;;;12.87;2.43;;;;;;;;;;4983691;28;20694;-63
2022/04/09 00:23:44;;;;;;;15.37;3.30;;;;;;;;;;4984297;28;20228;-63
2022/04/09 00:26:09;;;;;;;13.53;2.37;;;;;;;;;;4982830;28;20297;-63
2022/04/09 00:28:34;;;;;;;14.10;3.00;;;;;;;;;;4981917;28;20409;-63
2022/04/09 00:31:00;;;;;;;15.20;2.90;;;;;;;;;;4976534;28;20645;-63
2022/04/09 00:33:25;;;;;;;24.27;3.13;;;;;;;;;;4974904;28;20217;-63
2022/04/09 00:35:50;;;;;;;16.93;3.20;;;;;;;;;;4969901;28;20241;-63
2022/04/09 00:38:15;;;;;;;15.67;2.60;;;;;;;;;;4963361;28;20269;-63
2022/04/09 00:40:41;;;;;;;17.10;2.90;;;;;;;;;;4965153;28;20757;-63
2022/04/09 00:43:06;;;;;;;13.67;2.57;;;;;;;;;;4963997;28;20264;-63
2022/04/09 00:45:31;;;;;;;16.33;2.60;;;;;;;;;;4964522;28;20213;-63
2022/04/09 00:47:56;;;;;;;18.73;2.80;;;;;;;;;;4964803;28;20670;-63
2022/04/09 00:50:22;;;;;;;15.60;3.30;;;;;;;;;;4964592;28;20216;-63
2022/04/09 00:52:48;;;;;;;20.63;3.40;;;;;;;;;;4971387;28;20718;-63
2022/04/09 00:55:14;;;;;;;12.83;2.17;;;;;;;;;;4989700;28;20453;-63
2022/04/09 00:57:40;;;;;;;22.33;3.80;;;;;;;;;;4974850;28;20213;-63
2022/04/09 01:00:09;;;;;;;17.50;2.50;;;;;;;;;;4980665;28;20236;-63
2022/04/09 01:02:41;;;;;;;8.87;2.17;;;;;;;;;;4983736;28;20220;-63
2022/04/09 01:05:06;;;;;;;13.00;2.33;;;;;;;;;;4998082;28;20308;-62
2022/04/09 01:07:31;;;;;;;14.03;2.20;;;;;;;;;;4983272;28;20296;-63
2022/04/09 01:09:57;;;;;;;16.33;2.40;;;;;;;;;;4983597;28;20213;-63
2022/04/09 01:12:22;;;;;;;11.03;2.23;;;;;;;;;;4976665;28;20212;-63
2022/04/09 01:14:47;;;;;;;11.33;2.47;;;;;;;;;;4958712;28;20213;-63
2022/04/09 01:17:12;;;;;;;14.43;2.43;;;;;;;;;;4970826;28;20221;-63
2022/04/09 01:19:38;;;;;;;16.67;2.20;;;;;;;;;;4955811;28;20428;-63
2022/04/09 01:22:04;;;;;;;12.87;2.20;;;;;;;;;;4959586;28;20222;-63
2022/04/09 01:24:29;;;;;;;12.00;2.13;;;;;;;;;;4964214;28;20677;-63
2022/04/09 01:26:54;;;;;;;12.93;2.17;;;;;;;;;;4964094;28;20222;-63
2022/04/09 01:29:20;;;;;;;11.43;2.47;;;;;;;;;;4966139;28;20326;-63
2022/04/09 01:31:45;;;;;;;14.82;2.17;;;;;;;;;;4982866;28;20669;-63
2022/04/09 01:34:12;;;;;;;16.53;2.47;;;;;;;;;;4967661;28;20221;-63
2022/04/09 01:36:38;;;;;;;12.13;2.47;;;;;;;;;;4984775;28;20227;-61
2022/04/09 01:39:04;;;;;;;12.93;2.43;;;;;;;;;;4977366;28;20221;-61
2022/04/09 01:41:29;;;;;;;13.87;2.27;;;;;;;;;;4959044;28;20553;-61
2022/04/09 01:43:54;;;;;;;13.37;2.40;;;;;;;;;;4961747;28;20233;-61
2022/04/09 01:46:20;;;;;;;14.93;2.42;;;;;;;;;;4967433;28;20593;-61
2022/04/09 01:48:45;;;;;;;11.47;2.17;;;;;;;;;;4967120;28;20366;-61
2022/04/09 01:51:10;;;;;;;12.20;2.10;;;;;;;;;;4967494;28;20673;-61
2022/04/09 01:53:38;;;;;;;14.30;2.70;;;;;;;;;;4967193;28;20588;-61
2022/04/09 01:56:04;;;;;;;14.13;2.58;;;;;;;;;;4985684;28;20217;-61
2022/04/09 01:58:30;;;;;;;13.00;2.30;;;;;;;;;;4978265;28;20264;-62
2022/04/09 02:00:58;;;;;;;14.20;2.53;;;;;;;;;;4978731;28;20225;-61
2022/04/09 02:03:24;;;;;;;14.77;2.40;;;;;;;;;;4977272;28;20217;-62
2022/04/09 02:05:49;;;;;;;20.00;2.57;;;;;;;;;;4978914;28;20684;-61
2022/04/09 02:08:15;;;;;;;15.60;2.40;;;;;;;;;;4985189;28;20225;-62
2022/04/09 02:10:40;;;;;;;13.77;2.57;;;;;;;;;;4985922;28;20333;-61
2022/04/09 02:13:10;;;;;;;11.23;2.45;;;;;;;;;;4973618;28;20237;-61
2022/04/09 02:15:35;;;;;;;13.53;2.10;;;;;;;;;;4982502;28;20218;-61
2022/04/09 02:18:01;;;;;;;15.95;2.42;;;;;;;;;;4966072;28;20217;-61
2022/04/09 02:20:26;;;;;;;12.80;2.00;;;;;;;;;;4967206;28;20739;-61
2022/04/09 02:22:51;;;;;;;12.47;2.23;;;;;;;;;;4962379;28;20862;-61
2022/04/09 02:25:17;;;;;;;13.00;2.10;;;;;;;;;;4957915;28;20313;-61
2022/04/09 02:27:42;;;;;;;11.87;2.47;;;;;;;;;;4959321;28;20681;-61
2022/04/09 02:30:08;;;;;;;11.73;2.03;;;;;;;;;;4962871;28;20272;-61
2022/04/09 02:32:45;;;;;;;13.70;2.20;;;;;;;;;;4966423;28;20245;-61
2022/04/09 02:35:11;;;;;;;15.32;2.10;;;;;;;;;;4982585;28;20210;-61
2022/04/09 02:37:36;;;;;;;11.17;1.93;;;;;;;;;;4971028;28;20284;-61
2022/04/09 02:40:02;;;;;;;13.70;2.40;;;;;;;;;;4964625;28;20760;-61
2022/04/09 02:42:27;;;;;;;9.30;1.83;;;;;;;;;;4966558;28;20226;-61
2022/04/09 02:44:52;;;;;;;13.63;1.93;;;;;;;;;;4963200;28;20206;-61
2022/04/09 02:47:18;;;;;;;14.67;2.00;;;;;;;;;;4972102;28;20210;-61
2022/04/09 02:49:44;;;;;;;11.33;1.93;;;;;;;;;;4958768;28;20218;-61
2022/04/09 02:52:09;;;;;;;13.97;2.40;;;;;;;;;;4978351;28;20603;-61
2022/04/09 02:54:34;;;;;;;15.53;2.40;;;;;;;;;;4985735;28;20213;-61
2022/04/09 02:56:59;;;;;;;12.87;2.10;;;;;;;;;;4985388;28;20719;-61
2022/04/09 02:59:27;;;;;;;14.60;2.10;;;;;;;;;;4968864;28;20292;-61
2022/04/09 03:01:52;;;;;;;12.27;1.90;;;;;;;;;;4985530;28;20224;-61
2022/04/09 03:04:17;;;;;;;14.37;2.60;;;;;;;;;;4984848;28;20217;-61
2022/04/09 03:06:43;;;;;;;7.53;1.90;;;;;;;;;;4985047;28;20645;-61
2022/04/09 03:09:08;;;;;;;10.50;1.83;;;;;;;;;;4977270;28;20736;-61
2022/04/09 03:11:33;;;;;;;11.50;1.97;;;;;;;;;;4977726;28;20309;-61
2022/04/09 03:13:58;;;;;;;7.37;1.73;;;;;;;;;;4957872;28;20225;-61
2022/04/09 03:16:24;;;;;;;11.83;2.37;;;;;;;;;;4964907;28;21292;-61
2022/04/09 03:18:49;;;;;;;10.97;1.50;;;;;;;;;;4965919;28;20234;-61
2022/04/09 03:21:15;;;;;;;10.63;1.70;;;;;;;;;;4965220;28;20233;-61
2022/04/09 03:23:40;;;;;;;10.50;2.00;;;;;;;;;;4966106;28;20214;-61
2022/04/09 03:26:05;;;;;;;9.90;1.73;;;;;;;;;;4965553;28;20284;-61
2022/04/09 03:28:30;;;;;;;11.37;1.87;;;;;;;;;;4964960;28;20292;-61
2022/04/09 03:30:56;;;;;;;10.40;1.53;;;;;;;;;;4961098;28;20222;-61
2022/04/09 03:33:21;;;;;;;9.67;1.90;;;;;;;;;;4957402;28;20272;-61
2022/04/09 03:35:47;;;;;;;10.80;1.70;;;;;;;;;;4983891;28;20210;-61
2022/04/09 03:38:13;;;;;;;10.50;1.57;;;;;;;;;;4962045;28;20210;-61
2022/04/09 03:40:38;;;;;;;8.87;1.47;;;;;;;;;;4965779;28;20220;-61
2022/04/09 03:43:03;;;;;;;11.40;1.80;;;;;;;;;;4979863;28;20210;-61
2022/04/09 03:45:29;;;;;;;11.07;1.70;;;;;;;;;;4965359;28;20245;-61
2022/04/09 03:47:54;;;;;;;11.53;1.70;;;;;;;;;;4965729;28;20816;-61
2022/04/09 03:50:20;;;;;;;9.10;1.70;;;;;;;;;;4963846;28;20665;-61
2022/04/09 03:52:45;;;;;;;7.07;1.70;;;;;;;;;;4963082;28;20264;-61
2022/04/09 03:55:11;;;;;;;8.37;1.30;;;;;;;;;;4956992;28;20866;-61
2022/04/09 03:57:36;;;;;;;7.93;1.50;;;;;;;;;;4957107;28;20305;-61
2022/04/09 04:00:03;;;;;;;10.27;1.80;;;;;;;;;;4958524;28;20234;-60
2022/04/09 04:02:28;;;;;;;8.90;1.67;;;;;;;;;;4964508;28;20625;-61
2022/04/09 04:04:53;;;;;;;7.00;1.40;;;;;;;;;;4965312;28;20217;-61
2022/04/09 04:07:23;;;;;;;8.60;1.40;;;;;;;;;;4964610;28;20228;-61
2022/04/09 04:09:49;;;;;;;10.13;1.37;;;;;;;;;;4982908;28;20222;-61
2022/04/09 04:12:14;;;;;;;8.50;1.43;;;;;;;;;;4978592;28;20210;-61
2022/04/09 04:14:39;;;;;;;9.07;1.50;;;;;;;;;;4964799;28;20210;-61
2022/04/09 04:17:05;;;;;;;9.93;1.57;;;;;;;;;;4957688;28;20276;-61
2022/04/09 04:19:30;;;;;;;9.37;1.60;;;;;;;;;;4977745;28;20229;-61
2022/04/09 04:21:55;;;;;;;9.27;1.70;;;;;;;;;;4957526;28;20217;-61
2022/04/09 04:24:23;;;;;;;11.90;1.83;;;;;;;;;;4962188;28;20218;-61
2022/04/09 04:26:48;;;;;;;11.63;1.97;;;;;;;;;;4983608;28;20688;-61
2022/04/09 04:29:14;;;;;;;12.93;1.73;;;;;;;;;;4974792;28;20225;-61
2022/04/09 04:31:39;;;;;;;12.37;2.00;;;;;;;;;;4964331;28;20209;-61
2022/04/09 04:34:05;;;;;;;11.10;1.90;;;;;;;;;;4964470;28;20688;-60
2022/04/09 04:36:30;;;;;;;15.60;1.93;;;;;;;;;;4965558;28;20214;-61
2022/04/09 04:38:56;;;;;;;11.23;2.20;;;;;;;;;;4959928;28;20284;-61
2022/04/09 04:41:21;;;;;;;13.30;2.20;;;;;;;;;;4956425;28;20206;-61
2022/04/09 04:43:51;;;;;;;14.17;1.80;;;;;;;;;;4956362;28;20272;-61
2022/04/09 04:46:16;;;;;;;9.13;1.60;;;;;;;;;;4978234;28;20263;-61
2022/04/09 04:48:42;;;;;;;14.93;2.00;;;;;;;;;;4968007;28;20218;-61
2022/04/09 04:51:07;;;;;;;9.10;1.60;;;;;;;;;;4981574;28;20232;-61
2022/04/09 04:53:32;;;;;;;10.87;1.70;;;;;;;;;;4982916;28;20225;-61
2022/04/09 04:55:58;;;;;;;13.60;1.80;;;;;;;;;;4983132;28;20703;-61
2022/04/09 04:58:23;;;;;;;12.50;2.00;;;;;;;;;;4975341;28;20229;-61
2022/04/09 05:00:49;;;;;;;13.43;2.03;;;;;;;;;;4966391;28;20210;-61
2022/04/09 05:03:15;;;;;;;12.77;2.50;;;;;;;;;;4982718;28;20224;-64
2022/04/09 05:05:40;;;;;;;11.10;1.97;;;;;;;;;;4992712;28;20697;-62
2022/04/09 05:08:05;;;;;;;12.23;2.40;;;;;;;;;;4991548;28;20491;-64
2022/04/09 05:10:31;;;;;;;11.30;2.10;;;;;;;;;;4992761;28;20213;-64
2022/04/09 05:12:58;;;;;;;10.80;1.87;;;;;;;;;;4992452;28;20221;-61
2022/04/09 05:15:23;;;;;;;15.17;2.10;;;;;;;;;;4992621;28;20209;-62
2022/04/09 05:17:48;;;;;;;15.67;2.47;;;;;;;;;;4992944;28;20604;-63
2022/04/09 05:20:15;;;;;;;13.13;2.00;;;;;;;;;;4992638;28;20216;-61
2022/04/09 05:22:43;;;;;;;9.77;2.17;;;;;;;;;;5012702;28;20208;-62
2022/04/09 05:25:10;;;;;;;14.57;2.43;;;;;;;;;;5012199;28;20663;-62
2022/04/09 05:27:35;;;;;;;7.10;1.70;;;;;;;;;;5012139;28;20216;-62
2022/04/09 05:30:00;;;;;;;12.27;1.90;;;;;;;;;;5012261;28;20561;-62
2022/04/09 05:32:26;;;;;;;14.77;2.13;;;;;;;;;;4992191;28;20221;-61
2022/04/09 05:34:51;;;;;;;8.57;1.73;;;;;;;;;;4992086;28;20225;-62
2022/04/09 05:37:16;;;;;;;9.37;2.00;;;;;;;;;;4995822;28;20212;-63
2022/04/09 05:39:42;;;;;;;11.02;2.08;;;;;;;;;;4992073;28;20367;-62
2022/04/09 05:42:07;;;;;;;10.52;1.92;;;;;;;;;;4991235;28;20242;-62
2022/04/09 05:44:32;;;;;;;10.35;2.15;;;;;;;;;;4992618;28;20213;-62
2022/04/09 05:47:00;;;;;;;9.20;1.60;;;;;;;;;;4992238;28;20242;-62
2022/04/09 05:49:25;;;;;;;8.27;1.20;;;;;;;;;;4991209;28;20344;-62
2022/04/09 05:51:51;;;;;;;9.85;1.45;;;;;;;;;;4992187;28;20249;-62
2022/04/09 05:54:16;;;;;;;8.05;1.48;;;;;;;;;;4991982;28;20209;-62
2022/04/09 05:56:42;;;;;;;7.93;1.47;;;;;;;;;;4991679;28;20680;-63
2022/04/09 05:59:07;;;;;;;9.00;1.73;;;;;;;;;;4991843;28;20217;-62
2022/04/09 06:01:33;;;;;;;6.22;1.33;;;;;;;;;;4992105;28;20217;-62
2022/04/09 06:03:58;;;;;;;9.80;1.50;;;;;;;;;;4989869;28;20205;-63
2022/04/09 06:06:23;;;;;;;7.85;1.30;;;;;;;;;;4991932;28;20281;-61
2022/04/09 06:08:49;;;;;;;8.88;1.60;;;;;;;;;;4991640;28;20672;-63
2022/04/09 06:11:14;;;;;;;7.90;1.38;;;;;;;;;;4992381;28;20213;-63
2022/04/09 06:13:40;;;;;;;6.80;1.23;;;;;;;;;;4987577;28;20213;-63
2022/04/09 06:16:08;;;;;;;9.87;1.43;;;;;;;;;;4994712;28;20312;-63
2022/04/09 06:18:33;;;;;;;5.70;1.20;;;;;;;;;;4994498;28;20580;-63
2022/04/09 06:20:58;;;;;;;7.72;1.40;;;;;;;;;;4996146;28;20680;-63
2022/04/09 06:23:24;;;;;;;6.38;1.20;;;;;;;;;;4995064;28;20251;-64
2022/04/09 06:25:49;;;;;;;6.55;1.40;;;;;;;;;;4996272;28;20209;-64
2022/04/09 06:28:14;;;;;;;7.65;1.45;;;;;;;;;;4995054;28;20539;-64
2022/04/09 06:30:41;;;;;;;7.72;1.52;;;;;;;;;;4994893;28;20218;-64
2022/04/09 06:33:07;;;;;;;8.68;1.70;;;;;;;;;;4995479;28;20734;-65
2022/04/09 06:35:32;;;;;;;9.63;1.50;;;;;;;;;;4995754;28;20209;-65
2022/04/09 06:37:57;;;;;;;8.40;1.70;;;;;;;;;;4995356;28;20217;-65
2022/04/09 06:40:22;;;;;;;8.98;1.85;;;;;;;;;;4995300;28;20687;-65
2022/04/09 06:42:48;;;;;;;9.25;1.50;;;;;;;;;;4996273;28;20219;-63
2022/04/09 06:45:15;;;;;;;8.23;1.60;;;;;;;;;;4994167;28;20201;-64
2022/04/09 06:47:40;;;;;;;9.15;1.85;;;;;;;;;;4995600;28;20316;-65
2022/04/09 06:50:06;;;;;;;9.00;1.73;;;;;;;;;;4994818;28;20747;-64
2022/04/09 06:52:32;;;;;;;9.05;1.73;;;;;;;;;;5001755;28;20232;-64
2022/04/09 06:54:58;;;;;;;7.93;1.58;;;;;;;;;;4994868;28;20564;-64
2022/04/09 06:57:24;;;;;;;8.48;1.67;;;;;;;;;;4995181;28;20205;-64
2022/04/09 06:59:49;;;;;;;6.05;1.40;;;;;;;;;;4994683;28;20283;-64
2022/04/09 07:02:14;;;;;;;8.27;1.42;;;;;;;;;;4995112;28;20292;-64
2022/04/09 07:04:39;;;;;;;6.70;1.55;;;;;;;;;;4995188;28;20328;-64
2022/04/09 07:07:05;;;;;;;9.18;1.77;;;;;;;;;;4993395;28;20225;-64
2022/04/09 07:09:30;;;;;;;6.38;1.77;;;;;;;;;;4992948;28;20216;-64
2022/04/09 07:11:55;;;;;;;8.45;1.98;;;;;;;;;;4992252;28;20209;-64
2022/04/09 07:14:21;;;;;;;8.73;1.50;;;;;;;;;;4990464;28;20287;-64
2022/04/09 07:16:47;;;;;;;7.43;1.80;;;;;;;;;;4995055;28;20235;-64
2022/04/09 07:19:13;;;;;;;8.60;2.00;;;;;;;;;;4993617;28;20236;-64
2022/04/09 07:21:38;;;;;;;7.00;1.58;;;;;;;;;;4994555;28;20217;-64
2022/04/09 07:24:03;;;;;;;6.78;1.42;;;;;;;;;;4993643;28;20216;-65
2022/04/09 07:26:29;;;;;;;9.43;1.80;;;;;;;;;;4992932;28;20270;-64
2022/04/09 07:28:54;;;;;;;7.20;1.80;;;;;;;;;;4992907;28;20731;-64
2022/04/09 07:31:19;;;;;;;9.63;1.75;;;;;;;;;;4992835;28;20224;-64
2022/04/09 07:33:44;;;;;;;6.80;1.42;;;;;;;;;;4992115;28;20216;-65
2022/04/09 07:36:10;;;;;;;7.60;1.73;;;;;;;;;;4992392;28;20232;-64
2022/04/09 07:38:35;;;;;;;7.93;1.52;;;;;;;;;;4992459;28;20913;-65
2022/04/09 07:41:00;;;;;;;8.50;1.60;;;;;;;;;;4992072;28;20209;-65
2022/04/09 07:43:26;;;;;;;9.80;1.90;;;;;;;;;;4992866;28;20655;-64
2022/04/09 07:45:51;;;;;;;6.80;1.60;;;;;;;;;;4992875;28;20224;-65
2022/04/09 07:48:16;;;;;;;8.68;1.40;;;;;;;;;;4991442;28;20236;-65
2022/04/09 07:50:42;;;;;;;8.70;1.55;;;;;;;;;;4991338;28;20209;-64
2022/04/09 07:53:09;;;;;;;8.18;1.83;;;;;;;;;;4991348;28;20232;-64
2022/04/09 07:55:34;;;;;;;8.80;1.80;;;;;;;;;;4991786;28;20572;-64
2022/04/09 07:58:01;;;;;;;9.60;1.70;;;;;;;;;;4992470;28;20213;-64
2022/04/09 08:00:27;;;;;;;6.85;1.52;;;;;;;;;;4991936;28;20233;-64
2022/04/09 08:02:52;;;;;;;7.65;1.45;;;;;;;;;;4991749;28;20569;-64
2022/04/09 08:05:18;;;;;;;8.98;1.50;;;;;;;;;;4991838;28;20759;-65
2022/04/09 08:07:43;;;;;;;7.95;1.20;;;;;;;;;;4991858;28;20228;-64
2022/04/09 08:10:09;;;;;;;6.60;1.30;;;;;;;;;;4991163;28;20209;-64
2022/04/09 08:12:34;;;;;;;6.10;1.30;;;;;;;;;;4992277;28;20236;-64
2022/04/09 08:15:00;;;;;;;5.57;1.00;;;;;;;;;;4992238;28;20679;-64
2022/04/09 08:17:25;;;;;;;6.80;0.98;;;;;;;;;;4990974;28;20205;-63
2022/04/09 08:19:50;;;;;;;6.15;1.20;;;;;;;;;;4991783;28;20283;-63
2022/04/09 08:22:17;;;;;;;5.28;1.00;;;;;;;;;;4991473;28;20308;-63
2022/04/09 08:24:44;;;;;;;8.55;1.45;;;;;;;;;;4991136;28;20220;-63
2022/04/09 08:27:09;;;;;;;6.22;1.05;;;;;;;;;;4991641;28;20367;-63
2022/04/09 08:29:35;;;;;;;5.10;1.00;;;;;;;;;;4991018;28;20715;-63
2022/04/09 08:32:01;;;;;;;7.70;1.25;;;;;;;;;;4991753;28;20264;-63
2022/04/09 08:34:29;;;;;;;9.02;1.40;;;;;;;;;;4990527;28;20205;-63
2022/04/09 08:36:54;;;;;;;5.32;1.30;;;;;;;;;;4989652;28;20218;-64
2022/04/09 08:39:20;;;;;;;6.82;1.10;;;;;;;;;;4989429;28;20237;-63
2022/04/09 08:41:45;;;;;;;7.20;1.30;;;;;;;;;;4992466;28;20425;-67
2022/04/09 08:44:10;;;;;;;5.95;1.42;;;;;;;;;;4992031;28;20205;-70
2022/04/09 08:46:36;;;;;;;6.55;1.20;;;;;;;;;;5008389;28;20271;-67
2022/04/09 08:49:03;;;;;;;5.05;1.00;;;;;;;;;;4991467;28;20267;-65
2022/04/09 08:51:28;;;;;;;6.07;1.17;;;;;;;;;;4992639;28;20217;-65
2022/04/09 08:53:53;;;;;;;6.90;1.10;;;;;;;;;;4992953;28;20232;-62
2022/04/09 08:56:18;;;;;;;4.82;0.70;;;;;;;;;;5008327;28;20268;-65
2022/04/09 08:58:44;;;;;;;5.78;1.02;;;;;;;;;;5007342;28;20703;-64
2022/04/09 09:01:09;;;;;;;3.83;0.70;;;;;;;;;;4992940;28;20676;-63
2022/04/09 09:03:35;;;;;;;2.78;0.88;;;;;;;;;;4993089;28;20208;-63
2022/04/09 09:06:01;;;;;;;4.20;0.77;;;;;;;;;;4991155;28;20213;-63
2022/04/09 09:08:36;;;;;;;5.25;0.80;;;;;;;;;;4993124;28;20296;-64
2022/04/09 09:11:01;;;;;;;4.25;0.70;;;;;;;;;;4992934;28;20216;-64
2022/04/09 09:13:26;;;;;;;4.13;0.85;;;;;;;;;;4992145;28;20231;-64
2022/04/09 09:15:53;;;;;;;3.65;0.85;;;;;;;;;;4993297;28;20216;-65
2022/04/09 09:18:20;;;;;;;4.63;0.80;;;;;;;;;;4992615;28;20707;-65
2022/04/09 09:20:49;;;;;;;4.35;0.88;;;;;;;;;;4992477;28;20225;-66
2022/04/09 09:23:21;;;;;;;6.65;1.17;;;;;;;;;;4992471;28;20282;-66
2022/04/09 09:25:48;;;;;;;6.88;1.30;;;;;;;;;;4992519;28;20292;-66
2022/04/09 09:28:13;;;;;;;8.90;1.25;;;;;;;;;;4992182;28;20287;-66
2022/04/09 09:30:46;;;;;;;6.28;1.08;;;;;;;;;;4991883;28;20676;-66
2022/04/09 09:33:12;;;;;;;6.40;1.30;;;;;;;;;;4992085;28;20209;-66
2022/04/09 09:35:49;;;;;;;7.75;1.30;;;;;;;;;;4993157;28;20216;-66
2022/04/09 09:38:18;;;;;;;9.07;1.45;;;;;;;;;;4992581;28;20221;-66
2022/04/09 09:40:43;;;;;;;5.03;1.20;;;;;;;;;;4992029;28;20228;-66
2022/04/09 09:43:16;;;;;;;7.68;1.30;;;;;;;;;;4992766;28;20217;-66
2022/04/09 09:45:41;;;;;;;8.38;1.38;;;;;;;;;;4992748;28;20216;-66
2022/04/09 09:48:18;;;;;;;6.68;1.10;;;;;;;;;;4991347;28;20296;-66
2022/04/09 09:50:43;;;;;;;6.40;1.20;;;;;;;;;;4995460;28;20204;-66
2022/04/09 09:53:08;;;;;;;6.15;1.45;;;;;;;;;;4995827;28;20237;-65
2022/04/09 09:55:40;;;;;;;5.50;1.13;;;;;;;;;;4996073;28;20236;-66
2022/04/09 09:58:05;;;;;;;6.22;1.35;;;;;;;;;;4996082;28;20213;-65
2022/04/09 10:00:31;;;;;;;10.88;1.90;;;;;;;;;;4996485;28;20727;-66
2022/04/09 10:02:56;;;;;;;8.77;1.48;;;;;;;;;;4995877;28;20255;-66
2022/04/09 10:05:23;;;;;;;4.28;1.00;;;;;;;;;;4995020;28;20300;-66
2022/04/09 10:07:50;;;;;;;5.68;1.10;;;;;;;;;;4996395;28;20209;-66
2022/04/09 10:10:15;;;;;;;5.32;1.00;;;;;;;;;;4995306;28;20252;-66
2022/04/09 10:12:40;;;;;;;6.57;1.27;;;;;;;;;;4995836;28;20904;-65
2022/04/09 10:15:06;;;;;;;4.45;0.80;;;;;;;;;;4995212;28;20436;-65
2022/04/09 10:17:31;;;;;;;4.40;0.80;;;;;;;;;;4994389;28;20220;-65
2022/04/09 10:19:57;;;;;;;5.18;1.05;;;;;;;;;;4994337;28;20264;-67
2022/04/09 10:22:23;;;;;;;2.72;0.70;;;;;;;;;;4994574;28;20271;-67
2022/04/09 10:24:49;;;;;;;4.60;0.73;;;;;;;;;;4995850;28;20295;-69
2022/04/09 10:27:33;;;;;;;3.25;0.70;;;;;;;;;;4996231;28;20297;-65
2022/04/09 10:29:59;;;;;;;3.72;0.80;;;;;;;;;;4995348;28;20271;-64
2022/04/09 10:32:41;;;;;;;6.72;1.00;;;;;;;;;;4995804;28;20205;-64
2022/04/09 10:35:25;;;;;;;4.68;0.70;;;;;;;;;;4995593;28;20225;-64
2022/04/09 10:38:14;;;;;;;3.58;0.75;;;;;;;;;;4994696;28;20702;-64
2022/04/09 10:40:45;;;;;;;5.65;1.00;;;;;;;;;;4994334;28;20260;-64
2022/04/09 10:43:21;;;;;;;4.32;1.10;;;;;;;;;;4994822;28;20257;-64
2022/04/09 10:46:04;;;;;;;3.10;0.80;;;;;;;;;;4995902;28;20243;-64
2022/04/09 10:48:30;;;;;;;3.33;0.82;;;;;;;;;;4995422;28;20259;-64
2022/04/09 10:50:57;;;;;;;4.85;0.93;;;;;;;;;;4994809;28;20225;-64
2022/04/09 10:53:23;;;;;;;3.90;1.00;;;;;;;;;;4995188;28;20694;-63
2022/04/09 10:56:07;;;;;;;5.47;0.90;;;;;;;;;;4995684;28;20234;-62
2022/04/09 10:58:32;;;;;;;4.22;0.98;;;;;;;;;;4994289;28;20236;-63
2022/04/09 11:00:57;;;;;;;4.13;1.13;;;;;;;;;;4993222;28;20213;-64
2022/04/09 11:03:27;;;;;;;3.95;1.30;;;;;;;;;;4995422;28;20224;-63
2022/04/09 11:05:52;;;;;;;3.58;1.10;;;;;;;;;;4994746;28;20633;-64
2022/04/09 11:08:19;;;;;;;4.90;1.00;;;;;;;;;;4993811;28;20224;-64
2022/04/09 11:10:44;;;;;;;5.05;1.25;;;;;;;;;;4995217;28;20209;-63
2022/04/09 11:13:12;;;;;;;4.25;1.27;;;;;;;;;;4992671;28;20212;-64
2022/04/09 11:15:39;;;;;;;5.10;0.90;;;;;;;;;;4994067;28;20669;-64
2022/04/09 11:18:04;;;;;;;4.15;1.00;;;;;;;;;;4994956;28;20219;-64
2022/04/09 11:20:30;;;;;;;5.30;1.10;;;;;;;;;;4994245;28;20229;-65
2022/04/09 11:22:56;;;;;;;5.60;1.48;;;;;;;;;;4995129;28;20696;-67
2022/04/09 11:25:24;;;;;;;6.18;1.23;;;;;;;;;;4993786;28;20213;-67
2022/04/09 11:27:51;;;;;;;5.85;1.10;;;;;;;;;;4994992;28;20692;-66
2022/04/09 11:30:16;;;;;;;3.63;0.85;;;;;;;;;;4990518;28;20296;-66
2022/04/09 11:32:41;;;;;;;3.15;0.70;;;;;;;;;;4998599;28;20303;-65
2022/04/09 11:35:10;;;;;;;4.93;0.80;;;;;;;;;;4994163;28;20212;-65
2022/04/09 11:37:39;;;;;;;3.30;0.68;;;;;;;;;;4993339;28;20296;-66
2022/04/09 11:40:05;;;;;;;1.75;0.70;;;;;;;;;;4993433;28;20658;-66
2022/04/09 11:42:49;;;;;;;2.58;0.30;;;;;;;;;;4993433;28;20724;-66
2022/04/09 11:45:17;;;;;;;1.70;0.60;;;;;;;;;;4993943;28;20217;-66
2022/04/09 11:47:42;;;;;;;1.33;0.50;;;;;;;;;;4994231;28;20205;-66
2022/04/09 11:50:10;;;;;;;3.65;0.80;;;;;;;;;;4992521;28;20695;-66
2022/04/09 11:52:36;;;;;;;4.75;0.80;;;;;;;;;;4994458;28;20202;-66
2022/04/09 11:55:06;;;;;;;4.88;0.90;;;;;;;;;;4993162;28;20302;-66
2022/04/09 11:57:31;;;;;;;3.13;0.90;;;;;;;;;;5006717;28;20695;-67
2022/04/09 11:59:56;;;;;;;4.10;0.90;;;;;;;;;;4993837;28;20283;-67
2022/04/09 12:02:22;;;;;;;4.65;0.90;;;;;;;;;;4991973;28;20220;-67
2022/04/09 12:04:48;;;;;;;7.13;1.17;;;;;;;;;;5012442;28;20224;-68
2022/04/09 12:07:13;;;;;;;5.78;1.30;;;;;;;;;;5013468;28;20220;-69
2022/04/09 12:09:38;;;;;;;6.90;1.50;;;;;;;;;;5011871;28;20296;-69
2022/04/09 12:12:04;;;;;;;5.53;0.93;;;;;;;;;;5008552;28;20696;-69
2022/04/09 12:14:29;;;;;;;7.32;1.25;;;;;;;;;;4992887;28;20209;-69
2022/04/09 12:16:55;;;;;;;6.20;1.40;;;;;;;;;;4994201;28;20588;-69
2022/04/09 12:19:28;;;;;;;4.53;1.02;;;;;;;;;;4992288;28;20656;-61
2022/04/09 12:21:53;;;;;;;3.00;0.85;;;;;;;;;;4991933;28;20304;-62
2022/04/09 12:24:19;;;;;;;2.05;0.70;;;;;;;;;;4992461;28;20353;-64
2022/04/09 12:26:45;;;;;;;3.03;0.50;;;;;;;;;;4992831;28;20209;-64
2022/04/09 12:29:13;;;;;;;3.38;0.40;;;;;;;;;;4992158;28;20295;-64
2022/04/09 12:31:38;;;;;;;2.40;0.60;;;;;;;;;;4985481;28;20574;-64
2022/04/09 12:34:04;;;;;;;1.85;0.50;;;;;;;;;;4971643;28;20222;-63
2022/04/09 12:36:29;;;;;;;2.45;0.40;;;;;;;;;;4973674;28;20257;-62
2022/04/09 12:38:55;;;;;;;4.30;0.73;;;;;;;;;;4987276;28;20221;-63
2022/04/09 12:41:20;;;;;;;2.25;0.60;;;;;;;;;;4980774;28;20225;-64
2022/04/09 12:43:47;;;;;;;4.15;0.60;;;;;;;;;;4967360;28;20312;-64
2022/04/09 12:46:13;;;;;;;3.83;0.80;;;;;;;;;;4966782;28;20216;-64
2022/04/09 12:48:39;;;;;;;3.65;0.88;;;;;;;;;;4968873;28;20213;-65
2022/04/09 12:51:05;;;;;;;2.85;0.70;;;;;;;;;;4980631;28;20240;-65
2022/04/09 12:53:30;;;;;;;5.28;0.90;;;;;;;;;;4987162;28;20255;-65
2022/04/09 12:55:55;;;;;;;3.58;0.80;;;;;;;;;;4987117;28;20571;-66
2022/04/09 12:58:21;;;;;;;3.75;1.00;;;;;;;;;;4979073;28;20214;-64
2022/04/09 13:00:46;;;;;;;4.20;0.98;;;;;;;;;;4968328;28;20280;-64
2022/04/09 13:03:13;;;;;;;5.05;0.98;;;;;;;;;;4968195;28;20773;-64
2022/04/09 13:05:38;;;;;;;5.93;0.90;;;;;;;;;;4986327;28;20240;-64
2022/04/09 13:08:03;;;;;;;4.40;0.80;;;;;;;;;;4972989;28;20260;-64
2022/04/09 13:10:29;;;;;;;5.53;0.85;;;;;;;;;;4968070;28;20625;-65
2022/04/09 13:12:54;;;;;;;2.97;0.68;;;;;;;;;;4968987;28;20633;-65
2022/04/09 13:15:19;;;;;;;3.95;0.80;;;;;;;;;;4967614;28;20332;-65
2022/04/09 13:17:45;;;;;;;5.38;1.27;;;;;;;;;;4967121;28;20845;-65
2022/04/09 13:20:11;;;;;;;4.18;0.82;;;;;;;;;;4967460;28;20261;-65
2022/04/09 13:22:36;;;;;;;7.85;1.30;;;;;;;;;;4968151;28;20214;-71
2022/04/09 13:25:02;;;;;;;7.25;1.02;;;;;;;;;;4966235;28;20229;-68
2022/04/09 13:27:27;;;;;;;9.20;1.50;;;;;;;;;;4967704;28;20268;-70
2022/04/09 13:29:53;;;;;;;5.30;1.40;;;;;;;;;;4967802;28;20214;-70
2022/04/09 13:32:18;;;;;;;7.05;1.60;;;;;;;;;;4966311;28;20214;-68
2022/04/09 13:34:45;;;;;;;6.10;1.23;;;;;;;;;;4967510;28;20221;-67
2022/04/09 13:37:10;;;;;;;7.30;1.40;;;;;;;;;;4985772;28;20228;-67
2022/04/09 13:39:36;;;;;;;5.05;1.02;;;;;;;;;;4986075;28;20221;-66
2022/04/09 13:42:01;;;;;;;8.80;1.00;;;;;;;;;;4981307;28;20217;-65
2022/04/09 13:44:26;;;;;;;4.95;0.90;;;;;;;;;;4967378;28;20237;-66
2022/04/09 13:46:52;;;;;;;4.53;0.95;;;;;;;;;;4968063;28;20693;-66
2022/04/09 13:49:17;;;;;;;5.07;0.95;;;;;;;;;;4967052;28;20284;-67
2022/04/09 13:51:42;;;;;;;6.55;1.10;;;;;;;;;;4968095;28;20217;-66
2022/04/09 13:54:07;;;;;;;4.03;0.80;;;;;;;;;;4966220;28;20736;-66
2022/04/09 13:56:33;;;;;;;5.05;1.00;;;;;;;;;;4982648;28;20205;-67
2022/04/09 13:58:58;;;;;;;2.78;0.82;;;;;;;;;;4967347;28;20226;-67
2022/04/09 14:01:24;;;;;;;4.32;0.80;;;;;;;;;;4966280;28;20210;-67
2022/04/09 14:03:50;;;;;;;3.28;0.60;;;;;;;;;;4967691;28;20214;-68
2022/04/09 14:06:20;;;;;;;6.47;0.85;;;;;;;;;;4967946;28;20218;-67
2022/04/09 14:08:45;;;;;;;5.20;1.23;;;;;;;;;;4967588;28;20577;-68
2022/04/09 14:11:11;;;;;;;3.55;0.80;;;;;;;;;;4968140;28;20214;-69
2022/04/09 14:13:36;;;;;;;2.75;0.80;;;;;;;;;;4968782;28;20733;-68
2022/04/09 14:16:01;;;;;;;5.55;0.90;;;;;;;;;;4965934;28;20320;-70
2022/04/09 14:18:26;;;;;;;4.82;1.05;;;;;;;;;;4967234;28;20218;-71
2022/04/09 14:20:52;;;;;;;6.30;1.30;;;;;;;;;;4967514;28;20249;-70
2022/04/09 14:23:17;;;;;;;4.25;0.90;;;;;;;;;;4966061;28;20304;-70
2022/04/09 14:25:42;;;;;;;4.90;1.10;;;;;;;;;;4967540;28;20303;-70
2022/04/09 14:28:10;;;;;;;4.05;1.15;;;;;;;;;;4965956;28;20670;-69
2022/04/09 14:30:38;;;;;;;3.40;0.98;;;;;;;;;;4984543;28;20217;-68
2022/04/09 14:33:04;;;;;;;6.68;1.00;;;;;;;;;;4980806;28;20799;-69